Aviation Digital Data Service (ADDS)

Output produced by METARs form (1635 UTC 22 June 2017)
found at http://aviationweather.gov/adds/metars/
 
KDTW 221439Z 2215/2318 23014KT P6SM VCSH SCT060 BKN100 BKN200 
     FM221800 23018G28KT P6SM SCT050 
     FM230000 21015KT P6SM SCT070 BKN150 
     FM230600 19012KT P6SM BKN050 
     PROB30 2309/2312 4SM TSRA BKN035CB OVC050